createdAt,value
2022-12-15T01:21:01.750Z,79.61
2022-12-15T01:23:29.330Z,79.61
2022-12-15T01:25:56.220Z,79.89
2022-12-15T01:28:24.230Z,79.57
2022-12-15T01:30:51.981Z,79.35
2022-12-15T01:33:19.724Z,79.16
2022-12-15T01:35:55.505Z,78.93
2022-12-15T01:38:22.479Z,78.73
2022-12-15T01:40:55.747Z,78.58
2022-12-15T01:43:25.636Z,78.53
2022-12-15T01:45:55.313Z,78.52
2022-12-15T01:48:51.071Z,78.56
2022-12-15T01:51:26.869Z,78.61
2022-12-15T01:54:20.187Z,78.64
2022-12-15T01:56:50.724Z,78.67
2022-12-15T01:59:23.201Z,78.74
2022-12-15T02:01:50.467Z,78.78
2022-12-15T02:04:20.671Z,78.77
2022-12-15T02:06:47.364Z,78.71
2022-12-15T02:09:15.116Z,78.69
2022-12-15T02:12:08.165Z,78.56
2022-12-15T02:14:44.728Z,78.55
2022-12-15T02:17:37.241Z,78.46
2022-12-15T02:20:41.632Z,78.37
2022-12-15T02:23:33.826Z,78.29
2022-12-15T02:26:20.172Z,78.14
2022-12-15T02:29:13.424Z,78.18
2022-12-15T02:31:50.063Z,78.17
2022-12-15T02:34:42.402Z,78.22
2022-12-15T02:37:15.408Z,78.33
2022-12-15T02:39:42.677Z,78.47
2022-12-15T02:42:10.854Z,78.64
2022-12-15T02:44:39.527Z,78.77
2022-12-15T02:47:18.586Z,78.94
2022-12-15T02:50:09.717Z,79.05
2022-12-15T02:52:55.316Z,79.15
2022-12-15T02:55:37.817Z,79.28
2022-12-15T02:58:23.839Z,79.35
2022-12-15T03:00:59.478Z,79.39
2022-12-15T03:03:29.522Z,79.43
2022-12-15T03:05:57.671Z,79.47
2022-12-15T03:08:24.381Z,79.54
2022-12-15T03:10:53.158Z,79.62
2022-12-15T03:13:23.107Z,79.71
2022-12-15T03:15:49.890Z,79.82
2022-12-15T03:18:17.030Z,79.93
2022-12-15T03:20:43.660Z,80.06
2022-12-15T03:23:10.269Z,80.15
2022-12-15T03:25:37.330Z,80.24
2022-12-15T03:28:04.436Z,80.39
2022-12-15T03:30:31.940Z,80.48
2022-12-15T03:32:58.878Z,80.57
2022-12-15T03:35:25.525Z,80.63
2022-12-15T03:37:52.163Z,80.71
2022-12-15T03:40:19.133Z,80.81
2022-12-15T03:42:48.700Z,80.90
2022-12-15T03:45:23.224Z,81.01
2022-12-15T03:47:50.937Z,81.11
2022-12-15T03:50:20.937Z,81.22
2022-12-15T03:52:52.572Z,81.34
2022-12-15T03:55:20.931Z,81.44
2022-12-15T03:57:47.722Z,81.53
2022-12-15T04:00:15.312Z,81.64
2022-12-15T04:02:43.170Z,81.75
2022-12-15T04:05:17.070Z,81.88
2022-12-15T04:07:44.004Z,82.01
2022-12-15T04:10:12.197Z,82.17
2022-12-15T04:12:42.259Z,82.33
2022-12-15T04:15:11.119Z,82.47
2022-12-15T04:17:38.715Z,82.61
2022-12-15T04:20:09.901Z,82.75
2022-12-15T04:22:44.454Z,82.87
2022-12-15T04:25:32.792Z,82.97
2022-12-15T04:28:18.788Z,83.16
2022-12-15T04:31:07.687Z,83.26
2022-12-15T04:33:54.005Z,83.40
2022-12-15T04:36:39.873Z,83.51
2022-12-15T04:39:25.063Z,83.61
2022-12-15T04:42:12.851Z,83.74
2022-12-15T04:44:58.837Z,83.78
2022-12-15T04:47:44.213Z,83.81
2022-12-15T04:50:30.100Z,83.81
2022-12-15T04:53:26.117Z,83.80
2022-12-15T04:56:18.003Z,83.79
2022-12-15T04:59:04.414Z,83.78
2022-12-15T05:01:50.675Z,83.75
2022-12-15T05:04:36.268Z,83.76
2022-12-15T05:07:22.737Z,83.76
2022-12-15T05:10:14.332Z,83.77
2022-12-15T05:13:00.539Z,83.78
2022-12-15T05:15:46.128Z,83.64
2022-12-15T05:18:31.410Z,83.79
2022-12-15T05:21:18.267Z,83.85
2022-12-15T05:24:03.743Z,83.92
2022-12-15T05:26:52.660Z,83.97
2022-12-15T05:29:39.716Z,84.00
2022-12-15T05:32:07.834Z,84.07
2022-12-15T05:34:36.273Z,84.12
2022-12-15T05:37:05.014Z,84.17
2022-12-15T05:39:31.767Z,84.22
2022-12-15T05:41:58.803Z,84.31
2022-12-15T05:44:26.074Z,84.38
2022-12-15T05:46:53.002Z,84.45
2022-12-15T05:49:20.813Z,84.53
2022-12-15T05:51:48.152Z,84.60
2022-12-15T05:54:17.854Z,84.66
2022-12-15T05:56:45.502Z,84.72
2022-12-15T05:59:12.461Z,84.77
2022-12-15T06:01:39.295Z,84.84
2022-12-15T06:04:07.443Z,84.89
2022-12-15T06:06:34.090Z,84.96
2022-12-15T06:09:00.727Z,85.03
2022-12-15T06:11:27.930Z,85.09
2022-12-15T06:13:55.483Z,85.17
2022-12-15T06:16:24.561Z,85.25
2022-12-15T06:18:55.580Z,85.31
2022-12-15T06:21:24.942Z,85.39
2022-12-15T06:23:52.873Z,85.44
2022-12-15T06:26:24.008Z,85.49
2022-12-15T06:28:51.461Z,85.54
2022-12-15T06:31:22.610Z,85.57
2022-12-15T06:34:00.881Z,85.63
2022-12-15T06:36:28.726Z,85.67
2022-12-15T06:38:58.880Z,85.72
2022-12-15T06:41:25.534Z,85.76
2022-12-15T06:43:55.766Z,85.81
2022-12-15T06:46:23.941Z,85.87
2022-12-15T06:48:50.776Z,85.94
2022-12-15T06:51:18.279Z,85.96
2022-12-15T06:53:54.225Z,86.02
2022-12-15T06:56:28.817Z,86.06
2022-12-15T06:58:59.334Z,86.09
2022-12-15T07:01:26.617Z,86.12
2022-12-15T07:03:54.520Z,86.15
2022-12-15T07:06:21.602Z,86.17
2022-12-15T07:08:53.919Z,86.18
2022-12-15T07:11:21.444Z,86.20
2022-12-15T07:13:50.130Z,86.05
2022-12-15T07:16:17.665Z,86.21
2022-12-15T07:18:44.642Z,86.25
2022-12-15T07:21:11.591Z,86.29
2022-12-15T10:36:16.031Z,89.14
2022-12-15T10:41:34.836Z,89.70
2022-12-15T10:44:02.763Z,89.67
2022-12-15T10:46:31.850Z,89.62
2022-12-15T10:49:07.695Z,89.58
2022-12-15T10:51:44.837Z,89.53
2022-12-15T10:54:14.159Z,89.49
2022-12-15T10:56:55.716Z,89.49
2022-12-15T10:59:31.840Z,89.50
2022-12-15T11:02:36.632Z,89.48
2022-12-15T11:05:16.019Z,89.43
2022-12-15T11:07:46.196Z,89.46
2022-12-15T11:10:28.028Z,89.46
2022-12-15T11:13:00.246Z,89.47
2022-12-15T11:15:39.212Z,89.48
2022-12-15T11:18:25.396Z,89.49
2022-12-15T11:21:19.267Z,89.48
2022-12-15T11:24:09.590Z,89.49
2022-12-15T11:26:43.365Z,89.50
2022-12-15T11:29:42.928Z,89.52
2022-12-15T11:32:12.827Z,89.52
2022-12-15T11:34:44.465Z,89.57
2022-12-15T11:37:20.070Z,89.58
2022-12-15T11:40:05.310Z,89.58
2022-12-15T11:43:23.271Z,89.58
2022-12-15T11:46:05.341Z,89.58
2022-12-15T11:49:19.619Z,89.62
2022-12-15T11:51:57.822Z,89.64
2022-12-15T11:54:30.560Z,89.67
2022-12-15T11:57:26.288Z,89.69
2022-12-15T12:00:18.231Z,89.71
2022-12-15T12:03:04.293Z,89.73
2022-12-15T12:06:07.555Z,89.63
2022-12-15T12:08:43.528Z,89.70
2022-12-15T12:11:16.994Z,89.74
2022-12-15T12:13:50.879Z,89.75
2022-12-15T12:16:42.172Z,89.75
2022-12-15T12:19:27.910Z,89.78
2022-12-15T12:22:07.109Z,89.79
2022-12-15T12:24:43.762Z,89.81
2022-12-15T12:27:50.293Z,89.81
2022-12-15T12:30:21.256Z,89.82
2022-12-15T12:33:26.454Z,89.83
2022-12-15T12:35:59.005Z,89.81
2022-12-15T12:38:39.557Z,89.84
2022-12-15T12:41:09.865Z,89.85
2022-12-15T12:43:41.991Z,89.86
2022-12-15T12:46:16.327Z,89.87
2022-12-15T12:48:51.915Z,89.87
2022-12-15T12:51:35.232Z,89.88
2022-12-15T12:54:22.251Z,89.89
2022-12-15T12:56:50.492Z,89.89
2022-12-15T12:59:29.729Z,89.90
2022-12-15T13:02:11.199Z,89.90
2022-12-15T13:04:40.441Z,89.91
2022-12-15T13:07:36.354Z,89.89
2022-12-15T13:10:09.288Z,89.89
2022-12-15T13:12:53.787Z,89.89
2022-12-15T13:15:27.059Z,89.89
2022-12-15T13:18:06.542Z,89.89
2022-12-15T13:20:36.663Z,89.90
2022-12-15T13:23:22.340Z,89.92
2022-12-15T13:25:57.949Z,89.92
2022-12-15T13:28:45.727Z,89.92
2022-12-15T13:31:19.342Z,89.94
2022-12-15T13:33:49.291Z,89.92
2022-12-15T13:36:38.368Z,89.90
2022-12-15T13:39:12.362Z,89.92
2022-12-15T13:42:07.472Z,89.92
2022-12-15T13:44:40.908Z,89.92
2022-12-15T13:47:15.562Z,89.94
2022-12-15T13:53:17.444Z,89.98
2022-12-15T13:55:38.802Z,90.02
2022-12-15T13:58:16.758Z,90.02
2022-12-15T14:00:55.699Z,90.03
2022-12-15T14:03:24.197Z,90.07
2022-12-15T14:05:58.779Z,90.08
2022-12-15T14:08:29.880Z,90.10
2022-12-15T14:10:58.941Z,90.12
2022-12-15T14:13:30.566Z,90.14
2022-12-15T14:16:16.798Z,90.15
2022-12-15T14:18:44.894Z,90.16
2022-12-15T14:21:21.697Z,90.16
2022-12-15T14:26:35.587Z,90.16
2022-12-15T14:29:06.505Z,90.18
2022-12-15T14:31:33.767Z,90.21
2022-12-15T14:34:06.476Z,90.21
2022-12-15T14:36:34.314Z,90.21
2022-12-15T14:39:04.761Z,90.20
2022-12-15T14:41:43.822Z,90.23
2022-12-15T14:44:38.275Z,90.23
2022-12-15T14:47:29.761Z,90.24
2022-12-15T14:49:58.330Z,90.25
2022-12-15T14:52:34.152Z,90.25
2022-12-15T14:55:04.230Z,90.26
2022-12-15T14:57:47.777Z,90.26
2022-12-15T15:00:31.110Z,90.25
2022-12-15T15:03:07.606Z,89.97
2022-12-15T15:03:09.037Z,89.14
2022-12-15T15:03:18.987Z,90.27
2022-12-15T15:05:51.534Z,90.27
2022-12-15T15:08:36.633Z,90.27
2022-12-15T15:11:29.270Z,90.28
2022-12-15T15:13:59.452Z,90.29
2022-12-15T15:16:26.790Z,90.28
2022-12-15T15:18:56.376Z,90.27
2022-12-15T15:21:26.582Z,90.26
2022-12-15T15:24:20.309Z,90.25
2022-12-15T15:26:47.022Z,90.24
2022-12-15T15:29:49.820Z,90.25
2022-12-15T15:32:19.693Z,90.23
2022-12-15T15:34:47.310Z,90.22
2022-12-15T15:37:34.215Z,90.20
2022-12-15T15:40:01.933Z,90.19
2022-12-15T15:42:32.412Z,90.17
2022-12-15T15:44:59.537Z,90.17
2022-12-15T15:47:27.159Z,90.15
2022-12-15T15:49:56.329Z,90.14
2022-12-15T15:52:23.112Z,90.14
2022-12-15T15:54:51.812Z,90.14
2022-12-15T15:57:20.980Z,90.13
2022-12-15T15:59:48.017Z,90.13
2022-12-15T16:02:15.479Z,90.13
2022-12-15T16:04:43.980Z,90.12
2022-12-15T16:07:20.471Z,90.13
2022-12-15T16:09:47.459Z,90.13
2022-12-15T19:21:38.206Z,91.95
2022-12-15T19:24:07.607Z,91.95
2022-12-15T19:26:34.362Z,92.55
2022-12-15T19:29:01.186Z,92.53
2022-12-15T19:31:28.148Z,92.50
2022-12-15T19:33:54.854Z,92.46
2022-12-15T19:36:24.262Z,92.44
2022-12-15T19:38:54.942Z,92.38
2022-12-15T19:41:21.946Z,92.38
2022-12-15T19:43:48.643Z,92.35
2022-12-15T19:46:21.418Z,92.30
2022-12-15T19:48:48.418Z,92.29
2022-12-15T19:51:21.085Z,92.28
2022-12-15T19:53:48.908Z,92.29
2022-12-15T19:56:21.892Z,92.29
2022-12-15T19:58:49.124Z,92.32
2022-12-15T20:01:18.525Z,92.31
2022-12-15T20:03:50.723Z,92.33
2022-12-15T20:06:26.466Z,92.33
2022-12-15T20:08:55.903Z,92.30
2022-12-15T20:11:28.832Z,92.30
2022-12-15T20:13:56.485Z,92.28
2022-12-15T20:16:24.176Z,92.29
2022-12-15T20:18:53.139Z,92.32
2022-12-15T20:21:22.725Z,92.33
2022-12-15T20:23:54.503Z,92.32
2022-12-15T20:26:22.855Z,92.31
2022-12-15T20:28:49.514Z,92.29
2022-12-15T20:31:19.527Z,92.28
2022-12-15T20:33:47.603Z,92.28
2022-12-15T20:36:24.516Z,92.26
2022-12-15T20:38:52.707Z,92.26
2022-12-15T20:41:26.132Z,92.26
2022-12-15T20:43:54.638Z,92.28
2022-12-15T20:46:23.799Z,92.25
2022-12-15T20:48:52.096Z,92.26
2022-12-15T20:51:25.017Z,92.24
2022-12-15T20:53:53.572Z,92.23
2022-12-15T20:56:23.597Z,92.25
2022-12-15T20:58:51.493Z,92.24
2022-12-15T21:01:26.152Z,92.23
2022-12-15T21:03:58.151Z,92.24
2022-12-15T21:06:26.489Z,92.26
2022-12-15T21:08:54.431Z,92.23
2022-12-15T21:11:26.975Z,92.21
2022-12-15T21:13:56.646Z,92.19
2022-12-15T21:16:28.906Z,92.19
2022-12-15T21:19:20.196Z,92.16
2022-12-15T21:21:48.844Z,92.13
2022-12-15T21:24:24.787Z,92.08
2022-12-15T21:26:52.022Z,92.07
2022-12-15T21:29:23.658Z,92.06
2022-12-15T21:31:50.601Z,92.04
2022-12-15T21:34:17.791Z,92.02
2022-12-15T21:36:47.523Z,92.00
2022-12-15T21:39:29.474Z,91.96
2022-12-15T21:41:59.944Z,91.90
2022-12-15T21:44:26.782Z,91.87
2022-12-15T21:46:53.413Z,91.85
2022-12-15T21:49:21.740Z,91.84
2022-12-15T21:51:56.631Z,91.84
2022-12-15T21:54:30.671Z,91.85
2022-12-15T21:56:59.072Z,91.93
2022-12-15T21:59:31.477Z,91.97
2022-12-15T22:01:59.800Z,91.99
2022-12-15T22:04:31.354Z,91.96
2022-12-15T22:06:58.193Z,91.99
2022-12-15T22:09:24.945Z,91.99
2022-12-15T22:11:54.199Z,91.98
2022-12-15T22:14:31.669Z,91.94
2022-12-15T22:17:00.116Z,91.90
2022-12-15T22:19:27.585Z,91.85
2022-12-15T22:21:54.237Z,91.84
2022-12-15T22:24:22.104Z,91.81
2022-12-15T22:26:49.051Z,91.81
2022-12-15T22:29:21.657Z,91.82
2022-12-15T22:31:50.285Z,91.81
2022-12-15T22:34:20.066Z,91.79
2022-12-15T22:36:47.145Z,91.81
2022-12-15T22:39:15.104Z,91.80
2022-12-15T22:41:50.970Z,91.79
2022-12-15T22:44:22.489Z,91.79
2022-12-15T22:46:50.911Z,91.76
2022-12-15T22:49:24.001Z,91.73
2022-12-15T22:51:51.246Z,91.69
2022-12-15T22:54:20.952Z,91.66
2022-12-15T22:56:50.594Z,91.65
2022-12-15T22:59:24.678Z,91.62
2022-12-15T23:01:51.849Z,91.59
2022-12-15T23:04:18.709Z,91.56
2022-12-15T23:06:45.417Z,91.50
2022-12-15T23:09:12.393Z,91.43
2022-12-15T23:11:39.292Z,91.39
2022-12-15T23:14:08.737Z,91.39
2022-12-15T23:16:36.889Z,91.37
2022-12-15T23:19:04.553Z,91.37
2022-12-15T23:21:32.338Z,91.36
2022-12-15T23:23:59.680Z,91.33
2022-12-15T23:26:27.137Z,91.31
2022-12-15T23:28:55.130Z,91.26
2022-12-15T23:31:22.943Z,91.26
2022-12-15T23:33:52.167Z,91.26
2022-12-15T23:36:19.665Z,91.35
2022-12-15T23:38:46.709Z,91.40
2022-12-15T23:41:17.506Z,91.47
2022-12-15T23:43:44.569Z,91.49
2022-12-15T23:46:11.733Z,91.49
2022-12-15T23:48:40.676Z,91.50
2022-12-15T23:51:15.369Z,91.50
2022-12-15T23:53:43.527Z,91.51
2022-12-15T23:56:11.430Z,91.51
2022-12-15T23:58:39.594Z,91.52
